createdAt,value
2018-01-14T00:00:39.364Z,100517.53
2018-01-14T00:03:06.825Z,100516.23
2018-01-14T00:05:34.308Z,100508.16
2018-01-14T00:08:01.823Z,100505.09
2018-01-14T00:10:29.310Z,100503.97
2018-01-14T00:12:56.796Z,100511.80
2018-01-14T00:15:24.271Z,100505.36
2018-01-14T00:17:51.735Z,100507.48
2018-01-14T00:20:19.276Z,100504.09
2018-01-14T00:22:46.772Z,100503.83
2018-01-14T00:25:14.236Z,100502.87
2018-01-14T00:27:41.703Z,100505.03
2018-01-14T00:30:09.168Z,100503.23
2018-01-14T00:32:36.693Z,100503.06
2018-01-14T00:35:04.158Z,100504.09
2018-01-14T00:37:31.618Z,100505.08
2018-01-14T00:39:59.100Z,100503.92
2018-01-14T00:42:26.770Z,100503.42
2018-01-14T00:44:54.293Z,100507.50
2018-01-14T00:47:21.759Z,100507.53
2018-01-14T00:49:49.219Z,100519.19
2018-01-14T00:52:16.721Z,100516.81
2018-01-14T00:54:44.644Z,100507.73
2018-01-14T00:57:12.121Z,100514.80
2018-01-14T00:59:39.578Z,100518.58
2018-01-14T01:02:07.087Z,100512.20
2018-01-14T01:04:34.591Z,100514.17
2018-01-14T01:07:02.060Z,100511.15
2018-01-14T01:09:29.629Z,100502.78
2018-01-14T01:11:57.099Z,100499.89
2018-01-14T01:14:24.561Z,100495.48
2018-01-14T01:16:52.068Z,100496.36
2018-01-14T01:19:19.556Z,100497.98
2018-01-14T01:21:47.003Z,100507.87
2018-01-14T01:24:14.490Z,100504.05
2018-01-14T01:26:41.977Z,100501.13
2018-01-14T01:29:09.451Z,100499.84
2018-01-14T01:31:37.090Z,100497.02
2018-01-14T01:34:04.579Z,100496.14
2018-01-14T01:36:32.030Z,100498.56
2018-01-14T01:38:59.485Z,100494.02
2018-01-14T01:41:26.982Z,100493.95
2018-01-14T01:43:54.485Z,100480.69
2018-01-14T01:46:21.961Z,100489.02
2018-01-14T01:48:49.487Z,100488.19
2018-01-14T01:51:16.997Z,100482.55
2018-01-14T01:53:44.484Z,100481.15
2018-01-14T01:56:12.130Z,100481.66
2018-01-14T01:58:39.620Z,100485.44
2018-01-14T02:01:07.101Z,100489.48
2018-01-14T02:03:34.573Z,100491.47
2018-01-14T02:06:02.062Z,100486.02
2018-01-14T02:08:29.552Z,100486.63
2018-01-14T02:10:57.027Z,100486.20
2018-01-14T02:13:24.507Z,100482.98
2018-01-14T02:15:52.008Z,100482.31
2018-01-14T02:18:19.478Z,100480.61
2018-01-14T02:20:46.935Z,100479.21
2018-01-14T02:23:14.415Z,100481.99
2018-01-14T02:25:41.881Z,100478.60
2018-01-14T02:28:09.351Z,100473.09
2018-01-14T02:30:36.815Z,100483.65
2018-01-14T02:33:04.279Z,100480.23
2018-01-14T02:35:31.734Z,100480.80
2018-01-14T02:37:59.246Z,100475.69
2018-01-14T02:40:26.731Z,100472.83
2018-01-14T02:42:54.210Z,100467.89
2018-01-14T02:45:21.672Z,100472.80
2018-01-14T02:47:49.284Z,100466.02
2018-01-14T02:50:16.915Z,100465.70
2018-01-14T02:52:45.647Z,100465.70
2018-01-14T02:55:13.131Z,100464.69
2018-01-14T02:57:40.586Z,100468.61
2018-01-14T03:00:08.050Z,100453.75
2018-01-14T03:02:35.760Z,100463.38
2018-01-14T03:05:03.218Z,100457.33
2018-01-14T03:07:30.695Z,100460.75
2018-01-14T03:09:58.163Z,100466.45
2018-01-14T03:12:25.636Z,100450.91
2018-01-14T03:14:53.103Z,100452.14
2018-01-14T03:17:20.587Z,100445.50
2018-01-14T03:19:48.042Z,100448.53
2018-01-14T03:22:16.151Z,100450.42
2018-01-14T03:24:43.646Z,100449.79
2018-01-14T03:27:11.099Z,100452.20
2018-01-14T03:29:39.590Z,100450.08
2018-01-14T03:32:07.041Z,100450.37
2018-01-14T03:34:34.542Z,100450.05
2018-01-14T03:37:02.018Z,100453.91
2018-01-14T03:39:29.475Z,100451.13
2018-01-14T03:41:56.935Z,100448.36
2018-01-14T03:44:24.439Z,100445.27
2018-01-14T03:46:51.896Z,100448.22
2018-01-14T03:49:19.353Z,100451.61
2018-01-14T03:51:46.832Z,100449.08
2018-01-14T03:54:14.298Z,100449.92
2018-01-14T03:56:41.774Z,100449.08
2018-01-14T03:59:09.254Z,100452.91
2018-01-14T04:01:36.743Z,100448.94
2018-01-14T04:04:04.206Z,100443.86
2018-01-14T04:06:31.803Z,100445.02
2018-01-14T04:08:59.551Z,100445.23
2018-01-14T04:11:27.008Z,100444.44
2018-01-14T04:13:54.482Z,100441.56
2018-01-14T04:16:21.948Z,100442.49
2018-01-14T04:18:49.577Z,100445.73
2018-01-14T04:21:17.529Z,100450.10
2018-01-14T04:23:45.011Z,100452.95
2018-01-14T04:26:12.468Z,100453.13
2018-01-14T04:28:40.036Z,100455.87
2018-01-14T04:31:07.513Z,100458.24
2018-01-14T04:33:34.945Z,100453.78
2018-01-14T04:36:02.451Z,100456.02
2018-01-14T04:38:29.934Z,100461.74
2018-01-14T04:40:57.441Z,100458.53
2018-01-14T04:43:24.907Z,100456.91
2018-01-14T04:45:52.383Z,100462.90
2018-01-14T04:48:19.868Z,100463.84
2018-01-14T04:50:47.327Z,100473.89
2018-01-14T04:53:14.786Z,100463.00
2018-01-14T04:55:42.274Z,100461.23
2018-01-14T04:58:09.789Z,100463.05
2018-01-14T05:00:37.257Z,100470.07
2018-01-14T05:03:04.722Z,100474.25
2018-01-14T05:05:32.196Z,100473.75
2018-01-14T05:07:59.752Z,100470.80
2018-01-14T05:10:27.214Z,100472.67
2018-01-14T05:12:54.693Z,100471.80
2018-01-14T05:15:22.162Z,100477.75
2018-01-14T05:17:49.627Z,100471.63
2018-01-14T05:20:17.094Z,100473.67
2018-01-14T05:22:44.543Z,100477.75
2018-01-14T05:25:12.034Z,100471.55
2018-01-14T05:27:39.543Z,100476.92
2018-01-14T05:30:07.007Z,100478.44
2018-01-14T05:32:34.540Z,100473.78
2018-01-14T05:35:02.030Z,100478.50
2018-01-14T05:37:29.487Z,100482.69
2018-01-14T05:39:56.953Z,100476.92
2018-01-14T05:42:24.465Z,100479.70
2018-01-14T05:44:51.922Z,100478.18
2018-01-14T05:47:19.399Z,100478.50
2018-01-14T05:49:46.903Z,100484.02
2018-01-14T05:52:14.625Z,100483.05
2018-01-14T05:54:42.086Z,100479.55
2018-01-14T05:57:09.545Z,100484.59
2018-01-14T05:59:37.006Z,100493.16
2018-01-14T06:02:04.469Z,100485.13
2018-01-14T06:04:31.970Z,100491.20
2018-01-14T06:06:59.430Z,100487.86
2018-01-14T06:09:26.900Z,100489.44
2018-01-14T06:11:54.367Z,100494.59
2018-01-14T06:14:21.825Z,100496.61
2018-01-14T06:16:49.301Z,100498.27
2018-01-14T06:19:16.798Z,100488.19
2018-01-14T06:21:44.284Z,100494.67
2018-01-14T06:24:11.762Z,100495.85
2018-01-14T06:26:39.231Z,100500.83
2018-01-14T06:29:06.691Z,100496.01
2018-01-14T06:31:34.187Z,100497.30
2018-01-14T06:34:01.667Z,100499.05
2018-01-14T06:36:30.393Z,100504.50
2018-01-14T06:38:57.947Z,100498.91
2018-01-14T06:41:25.402Z,100504.14
2018-01-14T06:43:52.894Z,100503.95
2018-01-14T06:46:20.423Z,100503.20
2018-01-14T06:48:50.721Z,100503.84
2018-01-14T06:51:18.409Z,100506.59
2018-01-14T06:53:45.862Z,100510.01
2018-01-14T06:56:13.315Z,100505.36
2018-01-14T06:58:40.875Z,100507.88
2018-01-14T07:01:08.382Z,100507.52
2018-01-14T07:03:35.894Z,100513.36
2018-01-14T07:06:03.368Z,100520.02
2018-01-14T07:08:31.164Z,100517.25
2018-01-14T07:10:58.851Z,100524.12
2018-01-14T07:13:26.752Z,100519.91
2018-01-14T07:15:54.213Z,100526.11
2018-01-14T07:18:21.706Z,100527.09
2018-01-14T07:20:49.193Z,100528.20
2018-01-14T07:23:16.679Z,100533.56
2018-01-14T07:25:44.166Z,100525.92
2018-01-14T07:28:11.642Z,100541.30
2018-01-14T07:30:39.956Z,100543.46
2018-01-14T07:33:07.580Z,100548.86
2018-01-14T07:35:35.070Z,100542.71
2018-01-14T07:38:02.563Z,100548.86
2018-01-14T07:40:30.051Z,100543.47
2018-01-14T07:42:57.526Z,100547.32
2018-01-14T07:45:25.011Z,100552.05
2018-01-14T07:47:53.509Z,100546.89
2018-01-14T07:50:20.979Z,100548.82
2018-01-14T07:52:48.472Z,100541.41
2018-01-14T07:55:15.962Z,100546.89
2018-01-14T07:57:43.452Z,100553.11
2018-01-14T08:00:10.907Z,100552.37
2018-01-14T08:02:38.528Z,100551.23
2018-01-14T08:05:06.035Z,100559.42
2018-01-14T08:07:35.714Z,100553.13
2018-01-14T08:10:03.170Z,100551.19
2018-01-14T08:12:30.623Z,100549.77
2018-01-14T08:14:59.355Z,100555.71
2018-01-14T08:17:26.935Z,100558.55
2018-01-14T08:19:54.499Z,100556.62
2018-01-14T08:22:22.857Z,100562.13
2018-01-14T08:24:52.230Z,100566.66
2018-01-14T08:27:20.009Z,100569.66
2018-01-14T08:29:48.157Z,100565.41
2018-01-14T08:32:17.067Z,100561.00
2018-01-14T08:34:44.812Z,100570.64
2018-01-14T08:37:13.463Z,100571.63
2018-01-14T08:39:41.901Z,100573.60
2018-01-14T08:42:09.743Z,100580.81
2018-01-14T08:44:40.606Z,100582.31
2018-01-14T08:47:08.299Z,100583.64
2018-01-14T08:49:35.795Z,100585.62
2018-01-14T08:52:03.316Z,100582.94
2018-01-14T08:54:31.096Z,100581.28
2018-01-14T08:56:58.564Z,100588.09
2018-01-14T08:59:26.040Z,100587.86
2018-01-14T09:01:53.533Z,100594.31
2018-01-14T09:04:20.990Z,100593.92
2018-01-14T09:06:48.876Z,100591.80
2018-01-14T09:09:16.623Z,100606.73
2018-01-14T09:11:44.087Z,100607.64
2018-01-14T09:14:11.606Z,100609.22
2018-01-14T09:16:39.122Z,100611.50
2018-01-14T09:19:06.628Z,100613.94
2018-01-14T09:21:34.097Z,100623.72
2018-01-14T09:24:01.668Z,100622.41
2018-01-14T09:26:29.062Z,100620.29
2018-01-14T09:28:56.559Z,100613.91
2018-01-14T09:31:24.191Z,100615.83
2018-01-14T09:33:51.826Z,100616.14
2018-01-14T09:36:19.282Z,100614.70
2018-01-14T09:38:46.766Z,100612.70
2018-01-14T09:41:14.260Z,100617.16
2018-01-14T09:43:41.924Z,100622.16
2018-01-14T09:46:10.618Z,100620.27
2018-01-14T09:48:38.229Z,100621.61
2018-01-14T09:51:05.722Z,100619.38
2018-01-14T09:53:33.189Z,100615.77
2018-01-14T09:56:00.667Z,100605.02
2018-01-14T09:58:28.142Z,100608.38
2018-01-14T10:00:55.646Z,100610.72
2018-01-14T10:03:23.115Z,100614.76
2018-01-14T10:05:50.591Z,100616.08
2018-01-14T10:08:18.071Z,100606.31
2018-01-14T10:10:45.549Z,100616.13
2018-01-14T10:13:13.048Z,100610.31
2018-01-14T10:15:40.502Z,100605.73
2018-01-14T10:18:08.013Z,100620.02
2018-01-14T10:20:38.412Z,100613.37
2018-01-14T10:23:05.956Z,100615.88
2018-01-14T10:25:33.438Z,100613.89
2018-01-14T10:28:00.919Z,100617.33
2018-01-14T10:30:28.656Z,100608.83
2018-01-14T10:32:56.126Z,100610.25
2018-01-14T10:35:24.700Z,100608.83
2018-01-14T10:37:52.214Z,100609.49
2018-01-14T10:40:19.693Z,100604.32
2018-01-14T10:42:47.163Z,100603.78
2018-01-14T10:45:14.662Z,100606.93
2018-01-14T10:47:42.171Z,100615.30
2018-01-14T10:50:09.880Z,100605.84
2018-01-14T10:52:37.368Z,100610.50
2018-01-14T10:57:38.540Z,100607.44
2018-01-14T11:00:06.015Z,100602.27
2018-01-14T11:02:33.696Z,100605.91
2018-01-14T11:05:01.334Z,100604.69
2018-01-14T11:07:28.794Z,100600.19
2018-01-14T11:09:56.254Z,100600.37
2018-01-14T11:12:23.746Z,100594.11
2018-01-14T11:14:51.223Z,100599.39
2018-01-14T11:17:18.695Z,100598.56
2018-01-14T11:19:46.206Z,100593.23
2018-01-14T11:22:13.634Z,100596.44
2018-01-14T11:24:41.101Z,100597.00
2018-01-14T11:27:08.609Z,100594.04
2018-01-14T11:29:41.814Z,100586.16
2018-01-14T11:32:09.286Z,100587.89
2018-01-14T11:34:36.983Z,100587.02
2018-01-14T11:37:04.520Z,100573.17
2018-01-14T11:39:31.966Z,100576.63
2018-01-14T11:41:59.435Z,100581.55
2018-01-14T11:44:26.923Z,100576.20
2018-01-14T11:46:54.408Z,100571.29
2018-01-14T11:49:21.924Z,100573.42
2018-01-14T11:51:49.570Z,100574.75
2018-01-14T11:54:17.046Z,100569.80
2018-01-14T11:56:44.556Z,100567.00
2018-01-14T11:59:12.049Z,100568.02
2018-01-14T12:01:39.553Z,100563.45
2018-01-14T12:04:07.035Z,100574.09
2018-01-14T12:06:34.548Z,100570.27
2018-01-14T12:09:02.143Z,100562.98
2018-01-14T12:11:29.639Z,100565.80
2018-01-14T12:13:57.101Z,100565.51
2018-01-14T12:16:24.595Z,100548.80
2018-01-14T12:18:52.135Z,100558.63
2018-01-14T12:21:19.661Z,100559.69
2018-01-14T12:23:47.144Z,100564.34
2018-01-14T12:26:15.429Z,100557.83
2018-01-14T12:28:42.942Z,100562.91
2018-01-14T12:31:10.462Z,100558.92
2018-01-14T12:36:51.118Z,100556.08
2018-01-14T12:39:19.193Z,100552.40
2018-01-14T12:41:46.664Z,100550.17
2018-01-14T12:44:14.137Z,100545.95
2018-01-14T12:46:42.268Z,100550.64
2018-01-14T12:49:09.764Z,100546.75
2018-01-14T12:51:37.243Z,100547.31
2018-01-14T12:54:04.743Z,100547.28
2018-01-14T12:56:32.219Z,100543.42
2018-01-14T12:58:59.672Z,100543.86
2018-01-14T13:01:27.155Z,100546.45
2018-01-14T13:03:54.614Z,100557.19
2018-01-14T13:06:22.079Z,100551.48
2018-01-14T13:08:49.581Z,100554.92
2018-01-14T13:11:17.083Z,100558.81
2018-01-14T13:13:44.553Z,100548.08
2018-01-14T13:16:12.083Z,100552.52
2018-01-14T13:18:39.550Z,100546.91
2018-01-14T13:21:07.027Z,100554.82
2018-01-14T13:23:34.484Z,100553.61
2018-01-14T13:26:01.978Z,100550.58
2018-01-14T13:28:29.469Z,100553.94
2018-01-14T13:30:56.943Z,100550.95
2018-01-14T13:33:24.403Z,100553.95
2018-01-14T13:35:51.883Z,100553.34
2018-01-14T13:38:19.359Z,100545.73
2018-01-14T13:40:46.841Z,100549.02
2018-01-14T13:43:14.325Z,100554.16
2018-01-14T13:45:41.781Z,100555.64
2018-01-14T13:48:09.262Z,100552.71
2018-01-14T13:50:36.763Z,100552.17
2018-01-14T13:53:04.239Z,100557.47
2018-01-14T13:55:31.727Z,100546.70
2018-01-14T13:57:59.235Z,100550.47
2018-01-14T14:00:27.020Z,100546.22
2018-01-14T14:02:54.495Z,100532.92
2018-01-14T14:05:21.954Z,100541.55
2018-01-14T14:07:49.437Z,100539.77
2018-01-14T14:10:17.258Z,100542.70
2018-01-14T14:12:45.090Z,100542.51
2018-01-14T14:15:12.600Z,100547.44
2018-01-14T14:17:40.071Z,100538.69
2018-01-14T14:20:07.559Z,100546.18
2018-01-14T14:22:35.331Z,100550.28
2018-01-14T14:25:02.824Z,100545.36
2018-01-14T14:27:30.291Z,100543.05
2018-01-14T14:29:57.743Z,100542.62
2018-01-14T14:32:25.206Z,100541.64
2018-01-14T14:34:52.708Z,100540.31
2018-01-14T14:37:20.175Z,100542.09
2018-01-14T14:39:47.678Z,100540.84
2018-01-14T14:42:15.156Z,100546.06
2018-01-14T14:44:42.620Z,100538.67
2018-01-14T14:47:10.111Z,100541.44
2018-01-14T14:49:43.211Z,100537.80
2018-01-14T14:52:10.697Z,100545.26
2018-01-14T14:54:38.155Z,100548.34
2018-01-14T14:57:05.636Z,100545.81
2018-01-14T14:59:33.143Z,100542.90
2018-01-14T15:02:01.876Z,100546.50
2018-01-14T15:04:29.366Z,100550.75
2018-01-14T15:06:56.869Z,100546.97
2018-01-14T15:09:24.403Z,100549.88
2018-01-14T15:11:51.872Z,100551.38
2018-01-14T15:14:19.368Z,100554.02
2018-01-14T15:16:46.842Z,100554.26
2018-01-14T15:19:14.449Z,100552.84
2018-01-14T15:21:41.945Z,100553.22
2018-01-14T15:24:09.418Z,100553.86
2018-01-14T15:26:37.145Z,100551.30
2018-01-14T15:29:04.625Z,100549.36
2018-01-14T15:31:32.090Z,100551.02
2018-01-14T15:33:59.556Z,100546.17
2018-01-14T15:36:27.125Z,100553.94
2018-01-14T15:38:54.718Z,100554.10
2018-01-14T15:41:22.220Z,100554.38
2018-01-14T15:43:49.693Z,100548.58
2018-01-14T15:46:17.300Z,100552.33
2018-01-14T15:48:45.114Z,100554.49
2018-01-14T15:51:12.622Z,100558.59
2018-01-14T15:53:40.088Z,100558.04
2018-01-14T15:56:07.590Z,100556.42
2018-01-14T15:58:35.371Z,100563.59
2018-01-14T16:01:02.867Z,100559.38
2018-01-14T16:03:30.372Z,100560.45
2018-01-14T16:05:57.873Z,100565.13
2018-01-14T16:08:25.376Z,100556.47
2018-01-14T16:10:52.847Z,100562.92
2018-01-14T16:13:20.338Z,100563.20
2018-01-14T16:15:47.839Z,100559.30
2018-01-14T16:18:15.313Z,100570.21
2018-01-14T16:20:42.774Z,100567.89
2018-01-14T16:23:10.255Z,100565.48
2018-01-14T16:25:37.734Z,100566.63
2018-01-14T16:28:05.247Z,100564.11
2018-01-14T16:30:32.973Z,100563.80
2018-01-14T16:33:00.460Z,100568.56
2018-01-14T16:35:27.960Z,100572.11
2018-01-14T16:37:55.442Z,100570.14
2018-01-14T16:40:22.984Z,100571.78
2018-01-14T16:42:50.646Z,100582.34
2018-01-14T16:45:18.397Z,100582.47
2018-01-14T16:47:45.877Z,100585.14
2018-01-14T16:50:13.376Z,100583.01
2018-01-14T16:52:40.855Z,100585.89
2018-01-14T16:55:08.314Z,100589.19
2018-01-14T16:57:35.867Z,100593.41
2018-01-14T17:00:03.368Z,100584.16
2018-01-14T17:02:30.905Z,100586.63
2018-01-14T17:04:58.375Z,100588.67
2018-01-14T17:07:25.862Z,100579.11
2018-01-14T17:09:53.362Z,100583.33
2018-01-14T17:12:20.982Z,100587.58
2018-01-14T17:14:48.538Z,100587.89
2018-01-14T17:17:16.020Z,100587.73
2018-01-14T17:19:43.511Z,100588.88
2018-01-14T17:22:11.001Z,100591.98
2018-01-14T17:24:38.549Z,100593.33
2018-01-14T17:27:06.074Z,100587.05
2018-01-14T17:29:33.634Z,100589.34
2018-01-14T17:32:01.131Z,100593.16
2018-01-14T17:34:28.645Z,100589.81
2018-01-14T17:36:56.139Z,100597.17
2018-01-14T17:39:23.705Z,100597.98
2018-01-14T17:41:52.216Z,100592.76
2018-01-14T17:44:19.704Z,100598.19
2018-01-14T17:46:47.195Z,100593.02
2018-01-14T17:49:14.728Z,100604.22
2018-01-14T17:51:42.212Z,100605.05
2018-01-14T17:54:09.734Z,100608.52
2018-01-14T17:56:37.474Z,100608.35
2018-01-14T17:59:04.960Z,100614.81
2018-01-14T18:01:32.444Z,100617.42
2018-01-14T18:03:59.963Z,100614.86
2018-01-14T18:06:27.546Z,100620.80
2018-01-14T18:08:55.343Z,100614.81
2018-01-14T18:11:22.854Z,100611.18
2018-01-14T18:13:50.383Z,100614.38
2018-01-14T18:16:18.043Z,100617.06
2018-01-14T18:18:45.607Z,100615.95
2018-01-14T18:21:13.121Z,100618.12
2018-01-14T18:23:40.624Z,100627.05
2018-01-14T18:26:08.168Z,100626.84
2018-01-14T18:28:35.680Z,100624.98
2018-01-14T18:31:03.197Z,100627.45
2018-01-14T18:33:30.719Z,100628.47
2018-01-14T18:35:58.299Z,100624.88
2018-01-14T18:38:25.804Z,100623.48
2018-01-14T18:40:53.341Z,100625.34
2018-01-14T18:43:20.863Z,100638.61
2018-01-14T18:46:13.038Z,100630.48
2018-01-14T18:48:40.576Z,100627.97
2018-01-14T18:51:08.072Z,100637.30
2018-01-14T18:53:35.564Z,100633.66
2018-01-14T18:56:03.139Z,100633.86
2018-01-14T18:58:31.145Z,100635.84
2018-01-14T19:00:58.724Z,100638.22
2018-01-14T19:03:26.218Z,100636.96
2018-01-14T19:05:53.738Z,100643.83
2018-01-14T19:08:21.235Z,100645.47
2018-01-14T19:10:48.733Z,100645.22
2018-01-14T19:13:16.219Z,100652.30
2018-01-14T19:15:43.722Z,100646.34
2018-01-14T19:18:11.209Z,100654.78
2018-01-14T19:20:38.782Z,100644.66
2018-01-14T19:23:06.315Z,100643.31
2018-01-14T19:25:33.823Z,100647.00
2018-01-14T19:28:01.442Z,100649.00
2018-01-14T19:30:31.952Z,100648.09
2018-01-14T19:32:59.444Z,100642.97
2018-01-14T19:35:26.954Z,100653.30
2018-01-14T19:37:54.505Z,100640.62
2018-01-14T19:40:22.024Z,100645.91
2018-01-14T19:42:49.649Z,100654.17
2018-01-14T19:45:17.250Z,100649.70
2018-01-14T19:47:44.775Z,100652.42
2018-01-14T19:50:12.419Z,100644.44
2018-01-14T19:52:40.010Z,100644.92
2018-01-14T19:55:07.716Z,100648.22
2018-01-14T19:57:35.425Z,100648.70
2018-01-14T20:00:03.163Z,100645.18
2018-01-14T20:02:30.738Z,100652.81
2018-01-14T20:04:58.327Z,100653.55
2018-01-14T20:07:25.854Z,100657.33
2018-01-14T20:09:53.503Z,100646.61
2018-01-14T20:12:21.187Z,100652.23
2018-01-14T20:14:48.862Z,100651.67
2018-01-14T20:17:16.514Z,100650.67
2018-01-14T20:19:44.332Z,100655.36
2018-01-14T20:22:12.023Z,100649.38
2018-01-14T20:24:39.724Z,100651.06
2018-01-14T20:27:07.308Z,100642.52
2018-01-14T20:29:35.007Z,100645.41
2018-01-14T20:32:02.702Z,100644.50
2018-01-14T20:34:30.373Z,100634.18
2018-01-14T20:36:57.923Z,100640.37
2018-01-14T20:39:25.505Z,100639.46
2018-01-14T20:41:53.038Z,100645.62
2018-01-14T20:44:25.988Z,100638.56
2018-01-14T20:46:53.566Z,100645.12
2018-01-14T20:49:21.215Z,100650.25
2018-01-14T20:51:48.990Z,100651.48
2018-01-14T20:54:16.608Z,100650.34
2018-01-14T20:56:44.139Z,100649.91
2018-01-14T20:59:11.687Z,100645.48
2018-01-14T21:01:39.215Z,100647.95
2018-01-14T21:04:06.719Z,100647.69
2018-01-14T21:06:34.244Z,100647.96
2018-01-14T21:09:01.745Z,100643.36
2018-01-14T21:11:29.237Z,100650.00
2018-01-14T21:13:56.720Z,100650.30
2018-01-14T21:16:24.203Z,100650.56
2018-01-14T21:18:51.733Z,100647.13
2018-01-14T21:21:19.340Z,100649.34
2018-01-14T21:23:46.834Z,100645.84
2018-01-14T21:26:14.304Z,100649.00
2018-01-14T21:28:41.827Z,100651.87
2018-01-14T21:31:09.314Z,100649.66
2018-01-14T21:33:36.824Z,100647.96
2018-01-14T21:36:04.307Z,100647.61
2018-01-14T21:38:31.780Z,100651.42
2018-01-14T21:40:59.261Z,100646.44
2018-01-14T21:43:26.756Z,100644.23
2018-01-14T21:45:54.374Z,100637.75
2018-01-14T21:48:21.857Z,100639.10
2018-01-14T21:50:49.360Z,100642.41
2018-01-14T21:53:16.889Z,100636.84
2018-01-14T21:55:44.352Z,100642.97
2018-01-14T21:58:11.846Z,100631.68
2018-01-14T22:00:39.347Z,100638.14
2018-01-14T22:03:06.832Z,100635.09
2018-01-14T22:05:34.325Z,100636.97
2018-01-14T22:08:01.808Z,100625.38
2018-01-14T22:10:29.340Z,100632.23
2018-01-14T22:12:56.832Z,100633.97
2018-01-14T22:15:24.371Z,100626.77
2018-01-14T22:17:51.911Z,100630.63
2018-01-14T22:20:20.054Z,100630.89
2018-01-14T22:22:47.655Z,100631.57
2018-01-14T22:25:15.465Z,100637.37
2018-01-14T22:27:42.955Z,100633.09
2018-01-14T22:30:10.569Z,100628.02
2018-01-14T22:32:40.261Z,100629.91
2018-01-14T22:35:07.800Z,100628.73
2018-01-14T22:37:35.422Z,100620.19
2018-01-14T22:40:02.914Z,100633.39
2018-01-14T22:42:30.469Z,100624.83
2018-01-14T22:44:58.459Z,100618.41
2018-01-14T22:47:26.045Z,100623.11
2018-01-14T22:49:53.572Z,100622.17
2018-01-14T22:52:21.044Z,100621.66
2018-01-14T22:54:49.427Z,100626.34
2018-01-14T22:57:18.867Z,100618.80
2018-01-14T22:59:46.342Z,100623.05
2018-01-14T23:02:13.843Z,100629.39
2018-01-14T23:04:41.311Z,100608.52
2018-01-14T23:07:08.791Z,100611.77
2018-01-14T23:09:36.279Z,100616.20
2018-01-14T23:12:03.788Z,100612.89
2018-01-14T23:14:31.316Z,100614.70
2018-01-14T23:16:58.825Z,100614.25
2018-01-14T23:19:26.304Z,100611.96
2018-01-14T23:21:53.786Z,100609.61
2018-01-14T23:24:21.267Z,100610.48
2018-01-14T23:26:48.779Z,100609.04
2018-01-14T23:29:16.237Z,100613.22
2018-01-14T23:31:43.702Z,100598.77
2018-01-14T23:34:11.198Z,100604.94
2018-01-14T23:36:38.686Z,100597.09
2018-01-14T23:39:06.163Z,100607.16
2018-01-14T23:41:33.652Z,100594.97
2018-01-14T23:44:01.150Z,100604.62
2018-01-14T23:46:28.670Z,100602.67
2018-01-14T23:48:56.239Z,100604.08
2018-01-14T23:51:23.745Z,100606.50
2018-01-14T23:53:51.229Z,100602.89
2018-01-14T23:56:18.868Z,100597.78
2018-01-14T23:58:46.354Z,100593.42
